Time;durP1;ratioP1;P1;durP2;ratioP2;P2;SDS_P1;SDS_P2;PMS_P1;PMS_P2;Temp;Humidity;BMP_temperature;BMP_pressure;BME280_temperature;BME280_humidity;BME280_pressure;Samples;Min_cycle;Max_cycle;Signal;HPM_P1;HPM_P2
2022/07/02 00:00:15;;;;;;;2.80;1.60;;;13.40;99.90;;;;;;5073186;28;20029;-72
2022/07/02 00:02:42;;;;;;;1.77;1.65;;;13.40;99.90;;;;;;5065124;28;20047;-72
2022/07/02 00:05:10;;;;;;;1.83;1.60;;;13.40;99.90;;;;;;5062016;28;20044;-71
2022/07/02 00:07:36;;;;;;;3.75;1.52;;;13.40;99.90;;;;;;5071739;28;20028;-72
2022/07/02 00:10:02;;;;;;;2.80;1.33;;;13.50;99.90;;;;;;5072898;28;20124;-72
2022/07/02 00:12:28;;;;;;;1.77;1.33;;;13.50;99.90;;;;;;5070289;28;20418;-72
2022/07/02 00:14:58;;;;;;;1.70;1.50;;;13.40;99.90;;;;;;5071837;28;20020;-71
2022/07/02 00:17:24;;;;;;;1.92;1.73;;;13.40;99.90;;;;;;5072389;28;20052;-72
2022/07/02 00:19:52;;;;;;;2.72;1.50;;;13.40;99.90;;;;;;5064953;27;20056;-71
2022/07/02 00:22:18;;;;;;;2.42;1.67;;;13.40;99.90;;;;;;5071063;28;20053;-71
2022/07/02 00:24:45;;;;;;;5.28;2.00;;;13.40;99.90;;;;;;5066561;28;20032;-72
2022/07/02 00:27:13;;;;;;;1.90;1.50;;;13.40;99.90;;;;;;5072351;28;20039;-72
2022/07/02 00:30:03;;;;;;;2.28;1.67;;;13.30;99.90;;;;;;5071883;28;20039;-71
2022/07/02 00:32:35;;;;;;;1.60;1.50;;;13.30;99.90;;;;;;5068132;28;20086;-71
2022/07/02 00:35:13;;;;;;;2.58;1.27;;;13.30;99.90;;;;;;5058772;28;20106;-72
2022/07/02 00:37:39;;;;;;;2.35;1.58;;;13.30;99.90;;;;;;5071947;28;20031;-71
2022/07/02 00:40:07;;;;;;;1.63;1.52;;;13.30;99.90;;;;;;5072547;28;20032;-71
2022/07/02 00:42:35;;;;;;;1.60;1.33;;;13.30;99.90;;;;;;5071913;28;20437;-73
2022/07/02 00:45:02;;;;;;;2.78;1.50;;;13.30;99.90;;;;;;5072173;28;20032;-71
2022/07/02 00:47:30;;;;;;;2.20;1.60;;;13.20;99.90;;;;;;5070058;28;20399;-71
2022/07/02 00:49:56;;;;;;;4.68;1.52;;;13.20;99.90;;;;;;5062683;28;20102;-72
2022/07/02 00:52:21;;;;;;;1.50;1.25;;;13.20;99.90;;;;;;5066074;28;20029;-71
2022/07/02 00:54:47;;;;;;;1.67;1.58;;;13.20;99.90;;;;;;5060790;28;20028;-71
2022/07/02 00:57:13;;;;;;;1.83;1.73;;;13.20;99.90;;;;;;5061703;28;20032;-71
2022/07/02 00:59:40;;;;;;;3.88;1.40;;;13.20;99.90;;;;;;5052535;28;20029;-71
2022/07/02 01:02:08;;;;;;;5.25;1.38;;;13.20;99.90;;;;;;5053567;28;20480;-71
2022/07/02 01:04:35;;;;;;;1.40;1.20;;;13.20;99.90;;;;;;5052807;28;20393;-74
2022/07/02 01:07:08;;;;;;;2.95;1.20;;;13.10;99.90;;;;;;5054274;28;20041;-71
2022/07/02 01:12:26;;;;;;;1.63;1.13;;;13.10;99.90;;;;;;5050979;28;20070;-69
2022/07/02 01:14:52;;;;;;;1.38;1.27;;;13.10;99.90;;;;;;5046564;28;20028;-69
2022/07/02 01:17:19;;;;;;;2.45;1.45;;;13.10;99.90;;;;;;5053621;28;20379;-69
2022/07/02 01:19:44;;;;;;;2.60;1.38;;;13.20;99.90;;;;;;5049536;28;20040;-69
2022/07/02 01:22:22;;;;;;;2.70;1.50;;;13.10;99.90;;;;;;5051834;28;20033;-69
2022/07/02 01:24:51;;;;;;;1.73;1.33;;;13.10;99.90;;;;;;5048742;28;20558;-70
2022/07/02 01:27:18;;;;;;;3.38;1.23;;;13.10;99.90;;;;;;5051896;28;20036;-70
2022/07/02 01:29:44;;;;;;;2.08;1.30;;;13.10;99.90;;;;;;5040514;28;20025;-70
2022/07/02 01:32:10;;;;;;;1.52;1.42;;;13.10;99.90;;;;;;5038678;28;20029;-70
2022/07/02 01:34:42;;;;;;;3.55;1.55;;;13.10;99.90;;;;;;5041991;28;20020;-72
2022/07/02 01:37:11;;;;;;;1.88;1.65;;;13.00;99.90;;;;;;5038889;28;20052;-70
2022/07/02 01:39:38;;;;;;;1.40;1.20;;;13.00;99.90;;;;;;5044963;28;20488;-71
2022/07/02 01:42:05;;;;;;;1.90;1.52;;;13.00;99.90;;;;;;5050469;28;20032;-70
2022/07/02 01:44:30;;;;;;;1.80;1.70;;;13.00;99.90;;;;;;5050258;28;20126;-70
2022/07/02 01:46:56;;;;;;;3.35;2.00;;;13.00;99.90;;;;;;5049265;28;20029;-70
2022/07/02 01:49:22;;;;;;;1.70;1.52;;;13.00;99.90;;;;;;5050998;28;20044;-72
2022/07/02 01:51:47;;;;;;;4.95;1.92;;;13.00;99.90;;;;;;5051062;28;20028;-70
2022/07/02 01:54:13;;;;;;;1.77;1.67;;;13.00;99.90;;;;;;5052982;28;20423;-70
2022/07/02 01:56:39;;;;;;;2.15;1.45;;;13.00;99.90;;;;;;5059364;28;20021;-70
2022/07/02 01:59:05;;;;;;;4.15;1.50;;;12.90;99.90;;;;;;5062653;28;20043;-70
2022/07/02 02:01:31;;;;;;;4.40;1.52;;;12.90;99.90;;;;;;5070847;28;20150;-70
2022/07/02 02:03:57;;;;;;;3.72;1.30;;;12.90;99.90;;;;;;5064838;28;20031;-70
2022/07/02 02:06:23;;;;;;;1.90;1.40;;;12.90;99.90;;;;;;5071195;28;20205;-70
2022/07/02 02:08:49;;;;;;;1.80;1.70;;;12.90;99.90;;;;;;5070234;28;20434;-71
2022/07/02 02:11:15;;;;;;;2.55;1.63;;;12.80;99.90;;;;;;5050812;28;20120;-71
2022/07/02 02:13:41;;;;;;;1.65;1.55;;;12.80;99.90;;;;;;5048692;28;20037;-71
2022/07/02 02:16:06;;;;;;;3.28;1.52;;;12.80;99.90;;;;;;5051335;28;20103;-70
2022/07/02 02:18:32;;;;;;;1.42;1.27;;;12.80;99.90;;;;;;5053165;28;20443;-71
2022/07/02 02:20:58;;;;;;;2.75;1.33;;;12.70;99.90;;;;;;5050392;28;20064;-70
2022/07/02 02:23:24;;;;;;;6.90;1.67;;;12.80;99.90;;;;;;5050742;28;20052;-71
2022/07/02 02:25:49;;;;;;;1.58;1.40;;;12.70;99.90;;;;;;5049496;28;20036;-71
2022/07/02 02:28:15;;;;;;;3.15;1.50;;;12.70;99.90;;;;;;5051420;28;20036;-70
2022/07/02 02:30:41;;;;;;;1.52;1.42;;;12.70;99.90;;;;;;5040762;28;20025;-71
2022/07/02 02:33:06;;;;;;;3.47;1.55;;;12.70;99.90;;;;;;5047700;28;20037;-71
2022/07/02 02:35:32;;;;;;;1.90;1.50;;;12.70;99.90;;;;;;5051261;28;20048;-70
2022/07/02 02:37:58;;;;;;;1.75;1.48;;;12.70;99.90;;;;;;5049993;28;20036;-70
2022/07/02 02:40:23;;;;;;;1.60;1.50;;;12.70;99.90;;;;;;5050839;28;20445;-70
2022/07/02 02:42:49;;;;;;;3.67;1.63;;;12.60;99.90;;;;;;5048835;28;20036;-70
2022/07/02 02:45:14;;;;;;;3.75;2.10;;;12.60;99.90;;;;;;5051036;28;20090;-70
2022/07/02 02:47:40;;;;;;;4.85;1.58;;;12.60;99.90;;;;;;5039921;28;20504;-71
2022/07/02 02:50:06;;;;;;;2.53;1.70;;;12.60;99.90;;;;;;5050581;28;20473;-75
2022/07/02 02:52:32;;;;;;;2.08;1.80;;;12.50;99.90;;;;;;5050859;28;20450;-70
2022/07/02 02:54:58;;;;;;;3.83;2.03;;;12.60;99.90;;;;;;5050153;28;20025;-70
2022/07/02 02:57:23;;;;;;;2.65;1.70;;;12.50;99.90;;;;;;5050628;28;20035;-70
2022/07/02 02:59:49;;;;;;;2.72;1.80;;;12.50;99.90;;;;;;5049992;28;20033;-70
2022/07/02 03:02:14;;;;;;;2.80;1.70;;;12.40;99.90;;;;;;5044859;28;20409;-70
2022/07/02 03:04:40;;;;;;;2.08;1.70;;;12.40;99.90;;;;;;5049458;28;20029;-71
2022/07/02 03:07:05;;;;;;;2.40;2.20;;;12.40;99.90;;;;;;5050748;28;20021;-70
2022/07/02 03:09:31;;;;;;;4.07;2.10;;;12.40;99.90;;;;;;5050732;28;20150;-70
2022/07/02 03:11:57;;;;;;;2.45;1.75;;;12.40;99.90;;;;;;5049768;28;20029;-70
2022/07/02 03:14:22;;;;;;;2.80;2.08;;;12.40;99.90;;;;;;5050493;28;20029;-69
2022/07/02 03:16:48;;;;;;;4.13;2.22;;;12.40;99.90;;;;;;5049725;28;20519;-70
2022/07/02 03:19:14;;;;;;;3.03;2.03;;;12.40;99.90;;;;;;5063988;27;20048;-70
2022/07/02 03:21:39;;;;;;;4.47;1.98;;;12.40;99.90;;;;;;5060155;28;20025;-72
2022/07/02 03:24:05;;;;;;;2.40;2.10;;;12.40;99.90;;;;;;5070164;28;20470;-69
2022/07/02 03:26:31;;;;;;;4.00;2.13;;;12.40;99.90;;;;;;5052643;28;20047;-70
2022/07/02 03:28:56;;;;;;;1.88;1.77;;;12.30;99.90;;;;;;5044603;28;20028;-70
2022/07/02 03:31:22;;;;;;;1.75;1.65;;;12.30;99.90;;;;;;5070509;28;20088;-69
2022/07/02 03:33:48;;;;;;;4.05;2.08;;;12.30;99.90;;;;;;5066746;28;20436;-69
2022/07/02 03:36:13;;;;;;;6.40;2.08;;;12.30;99.90;;;;;;5064396;28;20054;-69
2022/07/02 03:38:39;;;;;;;2.22;1.88;;;12.30;99.90;;;;;;5071521;28;20096;-72
2022/07/02 03:41:08;;;;;;;2.80;2.20;;;12.30;99.90;;;;;;5071939;28;20043;-70
2022/07/02 03:43:36;;;;;;;2.15;1.95;;;12.30;99.90;;;;;;5073948;28;20052;-70
2022/07/02 03:46:02;;;;;;;2.55;2.10;;;12.30;99.90;;;;;;5072960;28;20292;-70
2022/07/02 03:48:28;;;;;;;2.78;2.03;;;12.20;99.90;;;;;;5069835;28;20028;-70
2022/07/02 03:50:54;;;;;;;2.10;1.90;;;12.30;99.90;;;;;;5073299;28;20036;-70
2022/07/02 03:53:20;;;;;;;2.38;2.17;;;12.30;99.90;;;;;;5069655;28;20155;-70
2022/07/02 03:55:46;;;;;;;2.78;2.40;;;12.20;99.90;;;;;;5072801;28;20055;-70
2022/07/02 03:58:12;;;;;;;2.10;2.00;;;12.30;99.90;;;;;;5073376;28;20036;-68
2022/07/02 04:00:37;;;;;;;3.33;2.10;;;12.30;99.90;;;;;;5073439;28;20059;-69
2022/07/02 04:03:03;;;;;;;3.33;2.08;;;12.30;99.90;;;;;;5069785;28;20056;-69
2022/07/02 04:05:28;;;;;;;3.75;2.38;;;12.40;99.90;;;;;;5073566;28;20025;-69
2022/07/02 04:07:54;;;;;;;6.80;2.50;;;12.40;99.90;;;;;;5072710;28;20498;-69
2022/07/02 04:10:20;;;;;;;3.03;2.70;;;12.40;99.90;;;;;;5065658;28;20532;-69
2022/07/02 04:12:45;;;;;;;2.53;2.20;;;12.40;99.90;;;;;;5072433;28;20028;-69
2022/07/02 04:15:11;;;;;;;4.65;2.72;;;12.50;99.90;;;;;;5073221;28;20033;-69
2022/07/02 04:17:37;;;;;;;2.60;2.30;;;12.50;99.90;;;;;;5073424;28;20024;-68
2022/07/02 04:20:03;;;;;;;2.22;1.88;;;12.50;99.90;;;;;;5072464;27;20873;-69
2022/07/02 04:22:29;;;;;;;2.88;2.10;;;12.60;99.90;;;;;;5073543;28;20031;-69
2022/07/02 04:24:55;;;;;;;2.10;1.90;;;12.60;99.90;;;;;;5071679;28;20032;-70
2022/07/02 04:27:20;;;;;;;3.10;2.13;;;12.70;99.90;;;;;;5070327;28;20032;-69
2022/07/02 04:29:46;;;;;;;2.20;2.00;;;12.70;99.90;;;;;;5072589;28;20095;-69
2022/07/02 04:32:13;;;;;;;2.70;2.03;;;12.70;99.90;;;;;;5068366;28;21635;-69
2022/07/02 04:34:38;;;;;;;2.45;2.22;;;12.80;99.90;;;;;;5072834;28;20534;-68
2022/07/02 04:37:04;;;;;;;2.55;2.35;;;12.90;99.90;;;;;;5072262;28;20064;-69
2022/07/02 04:39:30;;;;;;;2.88;2.50;;;12.90;99.90;;;;;;5072783;28;20020;-68
2022/07/02 04:41:57;;;;;;;2.28;2.08;;;13.00;99.90;;;;;;5069609;28;20100;-68
2022/07/02 04:44:24;;;;;;;3.83;3.40;;;13.10;99.90;;;;;;5064754;28;20032;-68
2022/07/02 04:46:49;;;;;;;3.75;3.15;;;13.20;99.90;;;;;;5071055;28;20311;-69
2022/07/02 04:49:15;;;;;;;3.13;2.50;;;13.30;99.90;;;;;;5072221;28;20038;-68
2022/07/02 04:51:41;;;;;;;4.95;2.75;;;13.40;99.90;;;;;;5072248;28;20037;-69
2022/07/02 04:54:07;;;;;;;4.63;3.00;;;13.50;99.90;;;;;;5072078;28;20056;-68
2022/07/02 04:56:32;;;;;;;3.03;2.67;;;13.60;99.90;;;;;;5072488;28;20104;-69
2022/07/02 04:58:58;;;;;;;3.00;2.70;;;13.80;99.90;;;;;;5071744;28;20384;-70
2022/07/02 05:01:24;;;;;;;4.53;2.95;;;13.90;99.90;;;;;;5059143;28;20029;-70
2022/07/02 05:03:51;;;;;;;3.78;2.97;;;14.10;99.90;;;;;;5068586;28;20024;-70
2022/07/02 05:06:21;;;;;;;7.40;3.20;;;14.20;99.90;;;;;;5072152;28;20044;-70
2022/07/02 05:08:48;;;;;;;4.97;3.20;;;14.30;99.90;;;;;;5066078;28;20028;-72
2022/07/02 05:11:16;;;;;;;5.72;2.92;;;14.30;99.90;;;;;;5060797;28;20036;-69
2022/07/02 05:13:43;;;;;;;5.68;3.28;;;14.40;99.90;;;;;;5061601;28;20028;-71
2022/07/02 05:16:09;;;;;;;4.18;2.60;;;14.50;99.90;;;;;;5062125;28;20112;-69
2022/07/02 05:18:34;;;;;;;7.65;3.70;;;14.60;99.90;;;;;;5062619;27;20116;-69
2022/07/02 05:21:00;;;;;;;5.82;2.75;;;14.70;99.90;;;;;;5050720;28;20048;-71
2022/07/02 05:23:26;;;;;;;4.70;2.80;;;14.80;99.90;;;;;;5051567;28;20036;-70
2022/07/02 05:25:51;;;;;;;3.35;3.05;;;14.90;99.90;;;;;;5050327;28;20079;-70
2022/07/02 05:28:17;;;;;;;4.50;2.88;;;15.00;99.90;;;;;;5063158;28;20035;-70
2022/07/02 05:30:42;;;;;;;6.32;2.60;;;15.10;99.90;;;;;;5050699;28;20033;-72
2022/07/02 05:33:08;;;;;;;3.78;2.70;;;15.20;99.90;;;;;;5049256;28;20029;-68
2022/07/02 05:35:34;;;;;;;6.63;2.83;;;15.30;99.90;;;;;;5051340;28;20028;-69
2022/07/02 05:37:59;;;;;;;4.20;3.10;;;15.40;99.90;;;;;;5056179;28;20386;-70
2022/07/02 05:40:25;;;;;;;4.45;2.67;;;15.60;99.90;;;;;;5056707;28;20132;-68
2022/07/02 05:42:50;;;;;;;6.68;2.40;;;15.70;99.90;;;;;;5046697;28;20040;-68
2022/07/02 05:45:16;;;;;;;3.35;1.80;;;15.70;99.90;;;;;;5051241;28;20037;-68
2022/07/02 05:47:42;;;;;;;3.40;1.77;;;15.80;99.90;;;;;;5051151;28;20025;-69
2022/07/02 05:50:08;;;;;;;1.95;1.67;;;15.90;99.90;;;;;;5042089;28;20033;-69
2022/07/02 05:52:34;;;;;;;1.73;1.27;;;16.00;99.90;;;;;;5051718;28;20085;-69
2022/07/02 05:55:00;;;;;;;1.80;1.08;;;16.10;99.90;;;;;;5050240;28;20112;-69
2022/07/02 05:57:25;;;;;;;1.08;1.05;;;16.20;99.90;;;;;;5051365;28;20149;-69
2022/07/02 05:59:51;;;;;;;1.92;1.48;;;16.30;99.90;;;;;;5050210;28;20071;-69
2022/07/02 06:02:17;;;;;;;4.00;1.10;;;16.30;99.90;;;;;;5044748;28;20028;-69
2022/07/02 06:04:44;;;;;;;3.38;1.40;;;16.40;99.90;;;;;;5049410;28;20032;-69
2022/07/02 06:09:54;;;;;;;2.20;1.02;;;16.60;99.90;;;;;;5064987;28;20039;-68
2022/07/02 06:12:19;;;;;;;3.15;1.30;;;16.80;99.90;;;;;;5051394;28;20029;-67
2022/07/02 06:14:45;;;;;;;3.33;1.17;;;17.00;99.90;;;;;;5050708;28;20395;-69
2022/07/02 06:17:11;;;;;;;1.77;0.90;;;17.00;99.90;;;;;;5063950;28;20028;-68
2022/07/02 06:19:38;;;;;;;5.40;1.05;;;17.10;99.90;;;;;;5054127;28;20106;-68
2022/07/02 06:22:06;;;;;;;1.83;0.95;;;17.20;99.90;;;;;;5044618;28;20076;-67
2022/07/02 06:24:31;;;;;;;1.73;1.15;;;17.30;99.90;;;;;;5045970;28;20029;-69
2022/07/02 06:26:57;;;;;;;2.00;0.80;;;17.40;99.90;;;;;;5049882;28;20090;-69
2022/07/02 06:29:22;;;;;;;1.88;0.80;;;17.60;99.90;;;;;;5059263;28;20100;-67
2022/07/02 06:31:48;;;;;;;0.88;0.60;;;17.80;99.90;;;;;;5065656;28;21170;-70
2022/07/02 06:34:14;;;;;;;0.88;0.82;;;17.80;99.90;;;;;;5070090;28;20035;-67
2022/07/02 06:36:39;;;;;;;0.70;0.70;;;17.90;99.90;;;;;;5069892;28;20540;-68
2022/07/02 06:39:05;;;;;;;1.85;0.93;;;17.90;99.90;;;;;;5065048;28;20035;-68
2022/07/02 06:44:14;;;;;;;1.25;0.80;;;18.00;99.90;;;;;;5042861;28;20210;-68
2022/07/02 06:46:40;;;;;;;3.55;1.02;;;18.20;99.90;;;;;;5055147;28;20029;-68
2022/07/02 06:49:06;;;;;;;0.85;0.70;;;18.30;99.90;;;;;;5058218;28;20491;-68
2022/07/02 06:51:31;;;;;;;2.67;0.80;;;18.30;99.90;;;;;;5050245;28;20127;-69
2022/07/02 06:54:05;;;;;;;2.00;0.75;;;18.40;99.90;;;;;;5049311;28;20462;-69
2022/07/02 06:56:35;;;;;;;0.75;0.73;;;18.50;99.90;;;;;;5049412;28;20370;-69
2022/07/02 06:59:01;;;;;;;0.75;0.70;;;18.70;99.90;;;;;;5050095;28;20037;-69
2022/07/02 07:01:26;;;;;;;3.60;0.68;;;18.70;99.90;;;;;;5049344;28;20055;-69
2022/07/02 07:03:52;;;;;;;1.38;0.85;;;18.80;99.90;;;;;;5049796;28;20040;-68
2022/07/02 07:06:25;;;;;;;2.40;1.08;;;18.90;99.90;;;;;;5058770;28;20077;-68
2022/07/02 07:08:53;;;;;;;2.55;0.50;;;18.90;99.90;;;;;;5049721;28;20029;-68
2022/07/02 07:11:22;;;;;;;1.42;0.73;;;19.00;99.90;;;;;;5049197;28;20036;-69
2022/07/02 07:13:48;;;;;;;1.02;0.75;;;19.10;99.90;;;;;;5053003;28;20377;-69
2022/07/02 07:16:14;;;;;;;2.15;0.70;;;19.20;99.90;;;;;;5053010;28;20094;-72
2022/07/02 07:18:40;;;;;;;1.75;0.98;;;19.20;99.90;;;;;;5050407;28;20040;-74
2022/07/02 07:21:06;;;;;;;2.80;0.60;;;19.20;99.90;;;;;;5054010;28;20033;-74
2022/07/02 07:23:32;;;;;;;0.60;0.60;;;19.40;99.90;;;;;;5052471;28;20420;-76
2022/07/02 07:25:57;;;;;;;1.55;0.80;;;19.50;99.90;;;;;;5052207;28;20032;-76
2022/07/02 07:28:26;;;;;;;1.88;0.50;;;19.50;99.90;;;;;;5059480;28;20077;-75
2022/07/02 07:30:54;;;;;;;1.92;0.40;;;19.60;99.90;;;;;;5052895;28;20032;-76
2022/07/02 07:33:19;;;;;;;0.65;0.50;;;19.70;99.90;;;;;;5054322;28;20044;-74
2022/07/02 07:35:45;;;;;;;0.90;0.60;;;19.70;99.90;;;;;;5052858;28;20385;-74
2022/07/02 07:38:11;;;;;;;0.68;0.65;;;19.90;99.90;;;;;;5052015;28;20029;-73
2022/07/02 07:40:36;;;;;;;1.00;0.73;;;19.90;99.90;;;;;;5052877;28;20029;-76
2022/07/02 07:43:03;;;;;;;3.50;1.00;;;20.00;99.90;;;;;;5052106;28;20163;-74
2022/07/02 07:45:29;;;;;;;0.65;0.65;;;20.00;99.90;;;;;;5053012;28;20053;-74
2022/07/02 07:47:55;;;;;;;0.85;0.50;;;20.10;99.90;;;;;;5053653;28;20029;-75
2022/07/02 07:50:21;;;;;;;2.50;1.00;;;20.20;99.90;;;;;;5052988;28;20500;-77
2022/07/02 07:52:47;;;;;;;1.33;0.70;;;20.30;99.90;;;;;;5056309;28;20045;-81
2022/07/02 07:55:12;;;;;;;0.70;0.70;;;20.40;99.90;;;;;;5052563;28;20159;-86
2022/07/02 07:57:38;;;;;;;0.50;0.50;;;20.50;99.90;;;;;;5053139;28;20052;-78
2022/07/02 08:00:06;;;;;;;1.08;0.70;;;20.60;99.90;;;;;;5054732;28;20039;-77
2022/07/02 08:02:31;;;;;;;1.25;0.70;;;20.70;99.90;;;;;;5049962;28;20057;-76
2022/07/02 08:04:57;;;;;;;1.90;0.60;;;20.90;99.90;;;;;;5065916;28;20067;-76
2022/07/02 08:07:23;;;;;;;1.90;0.70;;;21.00;99.90;;;;;;5053830;28;20021;-76
2022/07/02 08:09:53;;;;;;;1.17;1.08;;;21.10;99.90;;;;;;5054305;28;20025;-75
2022/07/02 08:12:20;;;;;;;3.17;0.93;;;21.10;99.90;;;;;;5068753;28;20025;-76
2022/07/02 08:14:45;;;;;;;2.30;0.55;;;21.20;99.90;;;;;;5060087;28;20060;-76
2022/07/02 08:17:11;;;;;;;2.13;0.70;;;21.30;99.90;;;;;;5072304;28;20476;-76
2022/07/02 08:19:37;;;;;;;0.40;0.40;;;21.40;99.30;;;;;;5050691;27;20489;-76
2022/07/02 08:22:02;;;;;;;2.58;1.10;;;21.50;99.60;;;;;;5052831;28;20082;-75
2022/07/02 08:24:29;;;;;;;3.30;1.17;;;21.70;99.60;;;;;;5053237;28;20029;-78
2022/07/02 08:26:55;;;;;;;23.05;18.90;;;21.80;99.00;;;;;;5053857;28;20094;-76
2022/07/02 08:29:20;;;;;;;1.95;1.70;;;21.90;98.90;;;;;;5054563;28;20037;-77
2022/07/02 08:31:46;;;;;;;0.60;0.60;;;22.00;98.60;;;;;;5051363;28;20036;-77
2022/07/02 08:37:09;;;;;;;0.95;0.50;;;22.10;97.80;;;;;;5029674;28;20060;-84
2022/07/02 08:39:35;;;;;;;2.55;0.40;;;22.10;97.90;;;;;;5054583;28;20029;-80
2022/07/02 08:42:02;;;;;;;0.80;0.80;;;22.20;97.40;;;;;;5048500;28;20058;-81
2022/07/02 08:44:31;;;;;;;0.88;0.70;;;22.20;97.10;;;;;;5042801;28;20033;-79
2022/07/02 08:46:58;;;;;;;4.20;0.70;;;22.20;96.30;;;;;;5036118;28;20017;-78
2022/07/02 08:49:26;;;;;;;0.73;0.45;;;22.30;96.90;;;;;;5035127;28;20029;-76
2022/07/02 08:54:22;;;;;;;0.52;0.40;;;22.60;95.90;;;;;;5036668;28;20064;-77
2022/07/02 08:56:50;;;;;;;1.17;0.38;;;22.50;94.60;;;;;;5052924;28;20482;-76
2022/07/02 08:59:17;;;;;;;2.05;0.70;;;22.60;94.40;;;;;;5051651;28;20052;-77
2022/07/02 09:01:48;;;;;;;2.95;0.68;;;22.60;93.80;;;;;;5048308;28;20379;-79
2022/07/02 09:04:18;;;;;;;2.42;0.50;;;22.60;93.40;;;;;;5051888;28;20098;-79
2022/07/02 09:06:46;;;;;;;0.63;0.52;;;22.80;93.40;;;;;;5036385;28;20462;-79
2022/07/02 09:09:12;;;;;;;0.68;0.57;;;23.00;93.30;;;;;;5043261;28;20544;-81
2022/07/02 09:11:37;;;;;;;0.85;0.60;;;23.10;92.40;;;;;;5039806;28;20030;-77
2022/07/02 09:14:05;;;;;;;0.82;0.52;;;23.10;92.30;;;;;;5036020;28;20091;-87
2022/07/02 09:16:31;;;;;;;1.60;0.70;;;23.30;91.20;;;;;;5015804;28;20057;-81
2022/07/02 09:18:57;;;;;;;0.68;0.40;;;23.30;91.30;;;;;;5041899;28;20049;-75
2022/07/02 09:21:22;;;;;;;1.00;0.40;;;23.30;90.90;;;;;;5052224;28;20029;-79
2022/07/02 09:23:50;;;;;;;0.80;0.70;;;23.30;90.80;;;;;;5045081;28;20143;-75
2022/07/02 09:26:20;;;;;;;2.78;0.77;;;23.50;91.20;;;;;;5051554;28;20568;-83
2022/07/02 09:28:53;;;;;;;;;;;23.50;90.40;;;;;;5052023;28;20036;-82
2022/07/02 09:31:19;;;;;;;1.17;0.70;;;23.60;88.90;;;;;;5050033;28;19912;-76
2022/07/02 09:33:44;;;;;;;0.30;0.30;;;23.70;84.20;;;;;;5051258;28;20021;-87
2022/07/02 09:36:12;;;;;;;2.80;0.50;;;23.60;81.80;;;;;;5052732;28;20033;-75
2022/07/02 09:38:49;;;;;;;0.95;0.43;;;23.50;82.40;;;;;;5046566;28;20067;-77
2022/07/02 09:41:23;;;;;;;0.60;0.50;;;23.60;82.60;;;;;;5036655;28;20045;-76
2022/07/02 09:43:53;;;;;;;0.28;0.28;;;23.60;81.20;;;;;;5050166;28;20079;-82
2022/07/02 09:46:20;;;;;;;0.43;0.40;;;23.60;78.80;;;;;;5050955;28;20896;-78
2022/07/02 09:48:47;;;;;;;0.20;0.20;;;23.80;80.20;;;;;;5051355;28;20029;-80
2022/07/02 09:51:14;;;;;;;5.43;0.70;;;24.00;80.00;;;;;;5050643;28;20037;-74
2022/07/02 09:53:53;;;;;;;1.38;1.02;;;24.20;78.50;;;;;;5050794;28;20393;-76
2022/07/02 09:56:21;;;;;;;0.85;0.57;;;24.40;79.20;;;;;;5048268;28;20032;-78
2022/07/02 09:58:47;;;;;;;1.23;0.52;;;24.40;76.10;;;;;;5054903;28;20063;-76
2022/07/02 10:01:17;;;;;;;1.92;0.77;;;24.40;75.40;;;;;;5049841;28;20047;-75
2022/07/02 10:03:54;;;;;;;0.68;0.50;;;24.40;75.50;;;;;;5069037;28;20040;-77
2022/07/02 10:06:20;;;;;;;0.60;0.50;;;24.30;76.40;;;;;;5069560;28;20040;-76
2022/07/02 10:08:47;;;;;;;0.50;0.50;;;24.40;77.30;;;;;;5049913;28;20512;-73
2022/07/02 10:11:14;;;;;;;0.40;0.40;;;24.50;77.30;;;;;;5039578;28;20036;-75
2022/07/02 10:13:41;;;;;;;1.40;0.50;;;24.50;76.40;;;;;;5059444;28;20457;-79
2022/07/02 10:16:26;;;;;;;2.95;0.65;;;24.70;74.10;;;;;;5056560;28;20397;-72
2022/07/02 10:18:53;;;;;;;0.55;0.50;;;24.70;74.80;;;;;;5052464;28;20101;-75
2022/07/02 10:21:21;;;;;;;0.60;0.60;;;24.80;74.70;;;;;;5053455;28;20082;-71
2022/07/02 10:23:46;;;;;;;2.00;0.63;;;24.80;72.70;;;;;;5052268;28;20032;-80
2022/07/02 10:26:13;;;;;;;0.85;0.50;;;24.90;72.00;;;;;;5049296;28;20418;-79
2022/07/02 10:28:39;;;;;;;1.20;0.50;;;24.90;72.00;;;;;;5042746;28;20048;-77
2022/07/02 10:31:08;;;;;;;0.63;0.50;;;25.00;72.10;;;;;;5065804;28;20087;-80
2022/07/02 10:33:49;;;;;;;3.08;0.65;;;25.10;72.10;;;;;;5051267;28;20025;-77
2022/07/02 10:36:16;;;;;;;1.13;0.60;;;25.30;71.60;;;;;;5036318;28;20078;-80
2022/07/02 10:38:54;;;;;;;0.40;0.40;;;25.40;71.50;;;;;;5050959;28;20025;-78
2022/07/02 10:41:25;;;;;;;0.98;0.50;;;25.30;72.10;;;;;;5059983;28;20635;-78
2022/07/02 10:43:55;;;;;;;2.35;0.40;;;25.40;70.90;;;;;;5051416;28;20033;-77
2022/07/02 10:46:24;;;;;;;0.57;0.50;;;25.50;69.20;;;;;;5069305;28;21627;-76
2022/07/02 10:48:52;;;;;;;0.98;0.47;;;25.60;69.40;;;;;;5054371;28;20025;-76
2022/07/02 10:51:29;;;;;;;0.73;0.70;;;25.70;69.10;;;;;;5059820;28;20090;-78
2022/07/02 10:53:59;;;;;;;0.70;0.60;;;25.60;69.10;;;;;;5060001;28;20370;-77
2022/07/02 10:56:25;;;;;;;3.70;0.75;;;25.50;69.50;;;;;;5055388;28;20025;-76
2022/07/02 10:58:51;;;;;;;0.47;0.47;;;25.50;69.70;;;;;;5058139;28;20049;-73
2022/07/02 11:01:21;;;;;;;0.55;0.40;;;25.50;69.40;;;;;;5053455;28;20417;-77
2022/07/02 11:04:00;;;;;;;0.80;0.60;;;25.60;70.90;;;;;;5073592;28;20051;-74
2022/07/02 11:06:31;;;;;;;1.80;0.52;;;25.60;69.70;;;;;;5069172;28;20463;-72
2022/07/02 11:09:04;;;;;;;0.98;0.60;;;25.70;67.80;;;;;;5054571;28;20099;-68
2022/07/02 11:11:34;;;;;;;0.75;0.60;;;25.60;68.00;;;;;;5058290;28;20089;-75
2022/07/02 11:14:16;;;;;;;0.95;0.65;;;25.50;68.40;;;;;;5073482;28;20102;-72
2022/07/02 11:16:51;;;;;;;0.80;0.70;;;25.60;67.90;;;;;;5073945;28;20068;-74
2022/07/02 11:19:18;;;;;;;0.47;0.47;;;25.70;68.40;;;;;;5063289;27;20048;-77
2022/07/02 11:21:45;;;;;;;2.15;0.50;;;25.80;68.60;;;;;;5054595;28;20036;-88
2022/07/02 11:24:14;;;;;;;1.00;0.50;;;26.00;66.60;;;;;;5040942;28;20036;-78
2022/07/02 11:26:41;;;;;;;0.75;0.75;;;26.10;66.90;;;;;;5057625;28;20040;-86
2022/07/02 11:29:07;;;;;;;7.10;0.93;;;26.10;67.00;;;;;;5056237;28;20036;-83
2022/07/02 11:31:38;;;;;;;0.85;0.40;;;26.10;66.30;;;;;;5051561;28;20060;-75
2022/07/02 11:34:03;;;;;;;2.47;0.73;;;26.10;65.90;;;;;;5053320;28;20040;-77
2022/07/02 11:36:29;;;;;;;0.52;0.50;;;26.00;66.40;;;;;;5053920;28;20040;-84
2022/07/02 11:38:55;;;;;;;0.60;0.60;;;26.00;66.20;;;;;;5053865;28;20029;-76
2022/07/02 11:41:24;;;;;;;0.85;0.50;;;26.10;65.00;;;;;;5041105;28;20037;-79
2022/07/02 11:43:57;;;;;;;0.40;0.30;;;26.10;65.70;;;;;;5053571;28;20117;-74
2022/07/02 11:46:25;;;;;;;1.83;0.60;;;26.20;63.80;;;;;;5052779;28;20120;-75
2022/07/02 11:48:52;;;;;;;0.40;0.40;;;26.20;66.00;;;;;;5045752;28;20116;-76
2022/07/02 11:51:19;;;;;;;1.48;0.50;;;26.30;66.10;;;;;;5052330;28;20508;-75
2022/07/02 11:53:58;;;;;;;2.90;0.80;;;26.50;65.20;;;;;;5053567;28;20052;-69
2022/07/02 11:56:25;;;;;;;0.40;0.40;;;26.60;64.30;;;;;;5032638;28;20076;-71
2022/07/02 11:58:50;;;;;;;0.50;0.50;;;26.70;64.60;;;;;;5028602;28;20036;-71
2022/07/02 12:01:25;;;;;;;0.90;0.60;;;26.90;64.10;;;;;;5030835;28;20405;-73
2022/07/02 12:03:52;;;;;;;0.63;0.47;;;27.20;64.00;;;;;;5034949;28;20040;-71
2022/07/02 12:06:18;;;;;;;1.98;0.60;;;27.20;62.50;;;;;;5043661;28;20029;-71
2022/07/02 12:08:43;;;;;;;0.75;0.65;;;27.10;63.60;;;;;;5053596;28;20482;-71
2022/07/02 12:11:14;;;;;;;0.52;0.52;;;27.20;64.60;;;;;;5050023;28;20473;-72
2022/07/02 12:13:40;;;;;;;3.40;0.95;;;27.30;63.20;;;;;;5032413;28;20041;-71
2022/07/02 12:16:08;;;;;;;1.95;0.70;;;27.40;63.90;;;;;;5032986;28;20032;-71
2022/07/02 12:18:34;;;;;;;0.40;0.40;;;27.50;61.00;;;;;;5041388;28;20045;-71
2022/07/02 12:21:10;;;;;;;0.85;0.60;;;27.50;61.00;;;;;;5056768;28;20036;-70
2022/07/02 12:23:43;;;;;;;0.52;0.40;;;27.60;61.40;;;;;;5053649;28;20143;-70
2022/07/02 12:26:10;;;;;;;1.17;0.45;;;27.70;61.20;;;;;;5052536;28;20108;-71
2022/07/02 12:31:20;;;;;;;0.55;0.55;;;27.70;62.10;;;;;;5051235;28;20075;-72
2022/07/02 12:33:55;;;;;;;1.95;0.60;;;27.70;61.80;;;;;;5055877;28;20059;-72
2022/07/02 12:36:21;;;;;;;2.53;0.47;;;27.70;62.40;;;;;;5053594;28;20058;-69
2022/07/02 12:38:47;;;;;;;2.13;0.93;;;27.90;62.40;;;;;;5054177;28;20017;-70
2022/07/02 12:41:12;;;;;;;3.08;0.90;;;28.10;62.70;;;;;;5050865;28;20120;-71
2022/07/02 12:43:38;;;;;;;1.27;0.80;;;28.20;64.80;;;;;;5056235;28;20058;-72
2022/07/02 12:46:07;;;;;;;2.00;0.73;;;28.40;61.70;;;;;;5054303;28;20108;-72
2022/07/02 12:48:44;;;;;;;0.70;0.70;;;28.40;61.60;;;;;;5052996;28;20057;-70
2022/07/02 12:51:11;;;;;;;1.23;0.70;;;28.60;62.00;;;;;;5065362;28;20124;-72
2022/07/02 12:53:36;;;;;;;1.13;0.75;;;28.60;61.70;;;;;;5066368;28;20025;-72
2022/07/02 12:56:04;;;;;;;2.20;0.70;;;28.70;61.30;;;;;;5059033;28;20036;-71
2022/07/02 12:58:31;;;;;;;3.67;1.10;;;28.70;61.00;;;;;;5070105;28;20025;-72
2022/07/02 13:00:57;;;;;;;1.45;0.80;;;28.80;60.80;;;;;;5071622;28;20032;-70
2022/07/02 13:03:24;;;;;;;2.28;0.80;;;28.70;61.10;;;;;;5053227;28;20025;-71